createdAt,value
2017-09-13T00:01:12.110Z,3.60
2017-09-13T00:03:39.689Z,2.70
2017-09-13T00:06:07.236Z,2.80
2017-09-13T00:08:34.822Z,3.20
2017-09-13T00:11:02.380Z,2.83
2017-09-13T00:13:29.926Z,4.43
2017-09-13T00:15:57.519Z,3.90
2017-09-13T00:18:25.134Z,2.90
2017-09-13T00:20:52.894Z,3.73
2017-09-13T00:23:20.473Z,2.23
2017-09-13T00:25:48.039Z,3.37
2017-09-13T00:28:15.623Z,3.80
2017-09-13T00:30:43.195Z,3.10
2017-09-13T00:33:10.764Z,3.17
2017-09-13T00:35:38.384Z,3.60
2017-09-13T00:38:06.002Z,3.40
2017-09-13T00:40:33.519Z,2.13
2017-09-13T00:43:01.053Z,5.73
2017-09-13T00:45:28.831Z,3.97
2017-09-13T00:47:56.358Z,4.73
2017-09-13T00:50:23.919Z,5.00
2017-09-13T00:52:51.483Z,2.23
2017-09-13T00:55:19.048Z,2.60
2017-09-13T00:57:46.589Z,4.40
2017-09-13T01:00:14.386Z,3.87
2017-09-13T01:02:41.981Z,3.77
2017-09-13T01:05:09.585Z,6.43
2017-09-13T01:07:37.230Z,2.33
2017-09-13T01:10:05.014Z,4.80
2017-09-13T01:12:32.558Z,3.50
2017-09-13T01:15:00.170Z,2.90
2017-09-13T01:17:27.716Z,3.20
2017-09-13T01:19:55.229Z,2.40
2017-09-13T01:22:22.760Z,3.80
2017-09-13T01:24:50.293Z,4.43
2017-09-13T01:27:18.036Z,3.10
2017-09-13T01:29:45.640Z,3.33
2017-09-13T01:32:13.194Z,3.00
2017-09-13T01:34:40.948Z,3.13
2017-09-13T01:37:08.552Z,2.50
2017-09-13T01:39:36.251Z,3.30
2017-09-13T01:42:03.781Z,5.37
2017-09-13T01:44:31.350Z,6.83
2017-09-13T01:46:58.979Z,3.53
2017-09-13T01:49:26.566Z,3.07
2017-09-13T01:51:55.735Z,2.43
2017-09-13T01:54:23.345Z,4.20
2017-09-13T01:56:50.930Z,4.03
2017-09-13T01:59:18.581Z,4.07
2017-09-13T02:01:47.086Z,3.30
2017-09-13T02:04:14.617Z,5.00
2017-09-13T02:06:42.178Z,5.30
2017-09-13T02:09:09.976Z,3.33
2017-09-13T02:11:37.598Z,3.63
2017-09-13T02:14:05.234Z,4.13
2017-09-13T02:16:32.810Z,3.90
2017-09-13T02:19:00.317Z,5.13
2017-09-13T02:21:27.846Z,3.90
2017-09-13T02:23:55.484Z,3.93
2017-09-13T02:26:23.038Z,9.13
2017-09-13T02:28:50.581Z,6.83
2017-09-13T02:31:18.164Z,5.77
2017-09-13T02:33:45.674Z,5.83
2017-09-13T02:36:13.303Z,5.97
2017-09-13T02:38:40.910Z,3.40
2017-09-13T02:41:08.655Z,8.50
2017-09-13T02:43:36.214Z,7.10
2017-09-13T02:46:03.782Z,8.80
2017-09-13T02:48:31.635Z,7.73
2017-09-13T02:50:59.173Z,7.43
2017-09-13T02:53:26.747Z,9.53
2017-09-13T02:55:54.309Z,13.07
2017-09-13T02:58:21.832Z,12.50
2017-09-13T03:00:49.508Z,9.27
2017-09-13T03:03:17.427Z,10.87
2017-09-13T03:05:44.975Z,7.23
2017-09-13T03:08:12.546Z,6.93
2017-09-13T03:10:40.114Z,8.80
2017-09-13T03:13:07.663Z,11.43
2017-09-13T03:15:35.237Z,11.47
2017-09-13T03:18:02.741Z,12.23
2017-09-13T03:20:30.335Z,21.80
2017-09-13T03:22:57.915Z,12.30
2017-09-13T03:25:26.230Z,14.83
2017-09-13T03:27:53.753Z,16.17
2017-09-13T03:30:21.339Z,19.87
2017-09-13T03:32:48.901Z,22.10
2017-09-13T03:35:16.447Z,17.63
2017-09-13T03:37:44.026Z,18.50
2017-09-13T03:40:11.575Z,24.20
2017-09-13T03:42:39.105Z,30.30
2017-09-13T03:45:06.673Z,21.87
2017-09-13T03:47:34.204Z,25.27
2017-09-13T03:50:01.763Z,16.43
2017-09-13T03:52:29.358Z,17.43
2017-09-13T03:54:56.865Z,16.53
2017-09-13T03:57:24.408Z,21.60
2017-09-13T03:59:51.970Z,19.20
2017-09-13T04:02:19.578Z,14.60
2017-09-13T04:04:47.114Z,20.73
2017-09-13T04:07:14.635Z,18.67
2017-09-13T04:09:42.210Z,20.67
2017-09-13T04:12:10.652Z,17.83
2017-09-13T04:14:38.204Z,13.13
2017-09-13T04:17:09.968Z,10.63
2017-09-13T04:22:30.704Z,9.20
2017-09-13T04:24:58.272Z,13.43
2017-09-13T04:27:25.866Z,13.93
2017-09-13T04:29:54.389Z,6.33
2017-09-13T04:32:21.960Z,7.83
2017-09-13T04:34:58.346Z,6.57
2017-09-13T04:37:29.440Z,13.87
2017-09-13T04:39:57.921Z,9.50
2017-09-13T04:45:25.235Z,10.80
2017-09-13T04:48:09.001Z,8.23
2017-09-13T04:50:38.402Z,14.47
2017-09-13T04:53:07.100Z,20.00
2017-09-13T04:55:34.759Z,10.17
2017-09-13T04:58:03.167Z,13.80
2017-09-13T05:00:30.886Z,11.90
2017-09-13T05:02:58.699Z,10.67
2017-09-13T05:05:26.246Z,18.20
2017-09-13T05:07:53.826Z,18.53
2017-09-13T05:10:21.438Z,16.97
2017-09-13T05:12:48.967Z,10.23
2017-09-13T05:15:16.577Z,12.43
2017-09-13T05:17:44.105Z,19.30
2017-09-13T05:20:11.616Z,12.23
2017-09-13T05:22:39.143Z,8.83
2017-09-13T05:25:06.938Z,11.97
2017-09-13T05:27:34.489Z,10.80
2017-09-13T05:30:02.184Z,8.20
2017-09-13T05:32:29.801Z,21.93
2017-09-13T05:34:57.556Z,6.53
2017-09-13T05:37:25.161Z,9.00
2017-09-13T05:39:52.770Z,9.30
2017-09-13T05:42:20.357Z,8.23
2017-09-13T05:44:47.884Z,15.33
2017-09-13T05:47:15.674Z,11.10
2017-09-13T05:49:43.317Z,11.27
2017-09-13T05:52:11.094Z,10.80
2017-09-13T05:54:38.741Z,10.50
2017-09-13T05:57:06.632Z,8.27
2017-09-13T05:59:34.194Z,16.97
2017-09-13T06:02:01.750Z,13.67
2017-09-13T06:04:29.297Z,17.13
2017-09-13T06:06:56.934Z,18.50
2017-09-13T06:09:24.539Z,22.07
2017-09-13T06:11:52.288Z,13.10
2017-09-13T06:14:19.963Z,7.63
2017-09-13T06:16:47.519Z,8.80
2017-09-13T06:19:15.138Z,12.90
2017-09-13T06:21:42.738Z,20.73
2017-09-13T06:24:10.309Z,14.03
2017-09-13T06:26:37.931Z,11.33
2017-09-13T06:29:05.603Z,7.87
2017-09-13T06:31:33.225Z,6.70
2017-09-13T06:34:01.174Z,7.83
2017-09-13T06:36:28.744Z,13.00
2017-09-13T06:38:56.340Z,7.83
2017-09-13T06:41:23.906Z,13.47
2017-09-13T06:43:51.577Z,11.30
2017-09-13T06:46:19.159Z,10.13
2017-09-13T06:48:46.705Z,9.63
2017-09-13T06:51:14.281Z,12.70
2017-09-13T06:53:41.847Z,10.20
2017-09-13T06:56:09.397Z,10.40
2017-09-13T06:58:36.947Z,7.27
2017-09-13T07:01:04.506Z,11.23
2017-09-13T07:03:32.083Z,6.60
2017-09-13T07:05:59.593Z,14.30
2017-09-13T07:08:27.155Z,16.83
2017-09-13T07:10:54.681Z,9.50
2017-09-13T07:13:22.251Z,12.13
2017-09-13T07:15:49.832Z,10.30
2017-09-13T07:18:17.342Z,12.43
2017-09-13T07:20:44.876Z,9.07
2017-09-13T07:23:12.454Z,6.80
2017-09-13T07:25:40.081Z,6.97
2017-09-13T07:28:07.626Z,9.60
2017-09-13T07:30:35.235Z,12.57
2017-09-13T07:33:02.754Z,7.80
2017-09-13T07:35:30.274Z,7.50
2017-09-13T07:37:57.888Z,8.87
2017-09-13T07:40:25.665Z,6.87
2017-09-13T07:42:53.247Z,6.07
2017-09-13T07:45:20.817Z,11.43
2017-09-13T07:47:48.350Z,9.07
2017-09-13T07:50:15.889Z,9.17
2017-09-13T07:52:43.450Z,8.57
2017-09-13T07:55:10.979Z,15.77
2017-09-13T07:57:38.510Z,12.57
2017-09-13T08:00:06.379Z,9.43
2017-09-13T08:02:33.893Z,7.10
2017-09-13T08:05:03.207Z,5.63
2017-09-13T08:07:30.835Z,7.50
2017-09-13T08:09:58.557Z,17.20
2017-09-13T08:12:26.286Z,9.27
2017-09-13T08:14:53.989Z,8.20
2017-09-13T08:17:22.354Z,11.60
2017-09-13T08:19:49.882Z,17.27
2017-09-13T08:22:17.454Z,12.47
2017-09-13T08:24:44.979Z,6.73
2017-09-13T08:27:12.607Z,10.40
2017-09-13T08:29:40.163Z,14.93
2017-09-13T08:32:07.822Z,6.70
2017-09-13T08:34:35.579Z,8.37
2017-09-13T08:37:03.095Z,9.03
2017-09-13T08:39:30.643Z,10.27
2017-09-13T08:41:58.150Z,6.37
2017-09-13T08:44:25.674Z,8.33
2017-09-13T08:46:53.211Z,6.93
2017-09-13T08:49:20.718Z,5.93
2017-09-13T08:51:48.450Z,9.73
2017-09-13T08:54:16.006Z,6.10
2017-09-13T08:56:43.559Z,5.73
2017-09-13T08:59:11.339Z,5.73
2017-09-13T09:01:38.895Z,6.80
2017-09-13T09:04:06.419Z,8.30
2017-09-13T09:06:34.424Z,7.50
2017-09-13T09:09:01.994Z,5.27
2017-09-13T09:11:29.586Z,7.20
2017-09-13T09:13:57.983Z,5.07
2017-09-13T09:16:25.572Z,5.73
2017-09-13T09:18:53.108Z,7.13
2017-09-13T09:21:20.685Z,10.97
2017-09-13T09:23:48.241Z,10.80
2017-09-13T09:26:15.871Z,14.70
2017-09-13T09:28:43.368Z,7.83
2017-09-13T09:31:11.100Z,7.10
2017-09-13T09:33:38.652Z,3.30
2017-09-13T09:36:06.249Z,8.60
2017-09-13T09:38:33.922Z,3.20
2017-09-13T09:41:01.444Z,5.50
2017-09-13T09:43:29.008Z,7.03
2017-09-13T09:45:56.646Z,7.07
2017-09-13T09:48:24.198Z,6.07
2017-09-13T09:50:51.733Z,7.10
2017-09-13T09:53:20.148Z,14.03
2017-09-13T09:55:47.721Z,8.13
2017-09-13T09:58:15.254Z,5.93
2017-09-13T10:00:42.858Z,8.73
2017-09-13T10:03:10.442Z,5.83
2017-09-13T10:05:38.036Z,5.40
2017-09-13T10:08:05.635Z,4.90
2017-09-13T10:10:33.374Z,6.17
2017-09-13T10:13:00.912Z,5.90
2017-09-13T10:15:28.494Z,7.50
2017-09-13T10:17:56.036Z,3.60
2017-09-13T10:20:23.571Z,6.63
2017-09-13T10:22:51.145Z,7.03
2017-09-13T10:25:18.735Z,7.60
2017-09-13T10:27:46.304Z,7.57
2017-09-13T10:30:13.998Z,6.50
2017-09-13T10:32:41.840Z,6.40
2017-09-13T10:35:09.602Z,5.87
2017-09-13T10:37:37.218Z,6.70
2017-09-13T10:40:05.490Z,7.43
2017-09-13T10:42:33.253Z,8.87
2017-09-13T10:45:00.830Z,8.60
2017-09-13T10:47:28.412Z,7.10
2017-09-13T10:49:55.983Z,6.23
2017-09-13T10:52:23.612Z,6.63
2017-09-13T10:54:51.149Z,6.00
2017-09-13T10:57:18.783Z,6.00
2017-09-13T10:59:46.385Z,7.10
2017-09-13T11:02:13.991Z,7.07
2017-09-13T11:04:42.426Z,5.53
2017-09-13T11:07:10.044Z,7.00
2017-09-13T11:09:37.651Z,5.73
2017-09-13T11:12:05.170Z,4.60
2017-09-13T11:14:32.705Z,9.40
2017-09-13T11:17:00.431Z,7.00
2017-09-13T11:19:28.003Z,5.33
2017-09-13T11:21:55.628Z,6.37
2017-09-13T11:24:23.209Z,4.80
2017-09-13T11:26:50.844Z,7.70
2017-09-13T11:29:18.467Z,6.43
2017-09-13T11:31:46.506Z,4.73
2017-09-13T11:34:14.173Z,5.30
2017-09-13T11:36:41.789Z,5.23
2017-09-13T11:39:09.376Z,8.90
2017-09-13T11:41:36.922Z,13.10
2017-09-13T11:44:04.483Z,6.60
2017-09-13T11:46:32.021Z,4.97
2017-09-13T11:48:59.543Z,6.50
2017-09-13T11:51:27.292Z,8.73
2017-09-13T11:53:54.861Z,7.20
2017-09-13T11:56:22.461Z,9.90
2017-09-13T11:58:50.189Z,7.33
2017-09-13T12:01:18.055Z,13.87
2017-09-13T12:03:45.629Z,10.93
2017-09-13T12:06:13.434Z,9.00
2017-09-13T12:08:41.015Z,5.13
2017-09-13T12:11:08.557Z,6.33
2017-09-13T12:13:36.126Z,5.00
2017-09-13T12:16:03.746Z,5.33
2017-09-13T12:18:31.298Z,8.20
2017-09-13T12:20:59.988Z,5.17
2017-09-13T12:23:27.598Z,7.37
2017-09-13T12:25:55.374Z,4.93
2017-09-13T12:28:22.904Z,7.80
2017-09-13T12:30:50.475Z,5.40
2017-09-13T12:33:18.094Z,7.93
2017-09-13T12:35:45.630Z,12.00
2017-09-13T12:38:13.200Z,5.43
2017-09-13T12:40:40.775Z,6.50
2017-09-13T12:43:08.551Z,6.73
2017-09-13T12:45:36.194Z,6.53
2017-09-13T12:48:03.754Z,6.20
2017-09-13T12:50:31.507Z,5.43
2017-09-13T12:52:59.114Z,7.60
2017-09-13T12:55:26.665Z,8.73
2017-09-13T12:57:54.210Z,4.70
2017-09-13T13:00:21.913Z,6.20
2017-09-13T13:02:49.674Z,5.77
2017-09-13T13:05:17.562Z,7.47
2017-09-13T13:07:45.380Z,8.50
2017-09-13T13:10:13.457Z,9.00
2017-09-13T13:12:41.590Z,6.47
2017-09-13T13:15:09.185Z,7.53
2017-09-13T13:17:36.772Z,5.33
2017-09-13T13:20:04.398Z,7.23
2017-09-13T13:22:32.009Z,5.87
2017-09-13T13:24:59.818Z,11.20
2017-09-13T13:27:27.365Z,8.60
2017-09-13T13:29:54.958Z,5.60
2017-09-13T13:32:23.094Z,5.57
2017-09-13T13:34:50.854Z,7.63
2017-09-13T13:37:18.402Z,6.33
2017-09-13T13:39:45.973Z,5.10
2017-09-13T13:42:13.596Z,6.60
2017-09-13T13:44:41.122Z,6.57
2017-09-13T13:47:08.698Z,10.63
2017-09-13T13:49:36.228Z,8.57
2017-09-13T13:52:03.769Z,6.33
2017-09-13T13:54:31.853Z,11.83
2017-09-13T13:56:59.377Z,4.77
2017-09-13T13:59:26.890Z,5.63
2017-09-13T14:01:54.469Z,5.53
2017-09-13T14:04:22.038Z,6.10
2017-09-13T14:06:49.637Z,4.80
2017-09-13T14:09:17.255Z,7.27
2017-09-13T14:11:44.779Z,6.73
2017-09-13T14:14:12.302Z,6.57
2017-09-13T14:16:39.971Z,7.23
2017-09-13T14:19:07.610Z,5.40
2017-09-13T14:21:35.139Z,5.00
2017-09-13T14:24:02.781Z,4.10
2017-09-13T14:26:30.337Z,6.40
2017-09-13T14:28:57.894Z,6.43
2017-09-13T14:31:25.476Z,5.10
2017-09-13T14:33:53.290Z,4.97
2017-09-13T14:36:20.842Z,6.33
2017-09-13T14:38:48.446Z,8.80
2017-09-13T14:41:16.257Z,10.33
2017-09-13T14:43:43.818Z,6.57
2017-09-13T14:46:11.378Z,7.90
2017-09-13T14:48:38.913Z,12.57
2017-09-13T14:51:06.429Z,15.17
2017-09-13T14:53:34.034Z,6.37
2017-09-13T14:56:01.601Z,5.90
2017-09-13T14:58:29.237Z,6.40
2017-09-13T15:00:57.027Z,5.13
2017-09-13T15:03:24.804Z,7.43
2017-09-13T15:05:52.378Z,6.23
2017-09-13T15:08:19.937Z,7.07
2017-09-13T15:10:48.046Z,5.00
2017-09-13T15:13:15.621Z,4.70
2017-09-13T15:15:43.175Z,9.50
2017-09-13T15:18:10.792Z,7.63
2017-09-13T15:20:38.334Z,11.10
2017-09-13T15:23:05.910Z,9.47
2017-09-13T15:25:33.452Z,10.77
2017-09-13T15:28:00.990Z,6.00
2017-09-13T15:30:28.713Z,6.97
2017-09-13T15:32:56.316Z,16.97
2017-09-13T15:35:24.070Z,8.77
2017-09-13T15:37:51.718Z,6.30
2017-09-13T15:40:19.335Z,8.63
2017-09-13T15:42:47.337Z,6.67
2017-09-13T15:45:15.016Z,5.00
2017-09-13T15:47:42.560Z,4.47
2017-09-13T15:50:10.098Z,5.27
2017-09-13T15:52:37.773Z,4.03
2017-09-13T15:55:05.423Z,4.13
2017-09-13T15:57:33.171Z,9.20
2017-09-13T16:00:00.746Z,16.37
2017-09-13T16:02:28.375Z,13.77
2017-09-13T16:04:55.951Z,8.90
2017-09-13T16:07:23.538Z,4.17
2017-09-13T16:09:51.128Z,11.77
2017-09-13T16:12:18.813Z,4.77
2017-09-13T16:14:46.876Z,7.83
2017-09-13T16:17:14.483Z,5.47
2017-09-13T16:19:43.753Z,5.90
2017-09-13T16:22:11.339Z,3.83
2017-09-13T16:24:38.935Z,3.60
2017-09-13T16:27:06.483Z,4.50
2017-09-13T16:29:35.095Z,6.73
2017-09-13T16:32:02.730Z,5.53
2017-09-13T16:34:30.372Z,16.70
2017-09-13T16:36:57.996Z,6.40
2017-09-13T16:39:25.641Z,7.97
2017-09-13T16:41:53.373Z,7.67
2017-09-13T16:44:21.052Z,7.10
2017-09-13T16:46:48.680Z,9.07
2017-09-13T16:49:16.356Z,6.50
2017-09-13T16:51:44.156Z,8.50
2017-09-13T16:54:11.773Z,10.53
2017-09-13T16:56:39.418Z,8.60
2017-09-13T16:59:06.986Z,10.07
2017-09-13T17:01:34.596Z,6.37
2017-09-13T17:04:02.175Z,8.00
2017-09-13T17:06:29.730Z,6.87
2017-09-13T17:08:57.555Z,11.53
2017-09-13T17:11:25.553Z,15.70
2017-09-13T17:13:53.113Z,9.10
2017-09-13T17:16:20.745Z,16.20
2017-09-13T17:18:48.386Z,12.10
2017-09-13T17:21:16.178Z,11.50
2017-09-13T17:23:43.800Z,9.97
2017-09-13T17:26:11.370Z,11.90
2017-09-13T17:28:38.961Z,9.43
2017-09-13T17:31:06.641Z,14.30
2017-09-13T17:33:34.511Z,13.50
2017-09-13T17:36:02.700Z,8.77
2017-09-13T17:38:30.355Z,12.10
2017-09-13T17:40:57.979Z,9.90
2017-09-13T17:43:25.526Z,9.00
2017-09-13T17:45:53.175Z,8.87
2017-09-13T17:48:21.109Z,10.40
2017-09-13T17:50:48.938Z,9.73
2017-09-13T17:53:16.563Z,13.23
2017-09-13T17:55:44.135Z,11.97
2017-09-13T17:58:11.700Z,10.07
2017-09-13T18:00:39.360Z,8.67
2017-09-13T18:03:06.952Z,14.40
2017-09-13T18:05:35.459Z,11.97
2017-09-13T18:08:03.092Z,11.20
2017-09-13T18:10:30.698Z,11.70
2017-09-13T18:12:58.289Z,12.33
2017-09-13T18:15:25.884Z,17.17
2017-09-13T18:17:53.503Z,18.47
2017-09-13T18:20:21.067Z,15.50
2017-09-13T18:22:48.675Z,13.40
2017-09-13T18:25:16.226Z,17.03
2017-09-13T18:27:43.810Z,13.30
2017-09-13T18:30:11.429Z,11.60
2017-09-13T18:32:39.054Z,13.23
2017-09-13T18:35:06.611Z,18.23
2017-09-13T18:37:34.194Z,14.40
2017-09-13T18:40:01.811Z,12.63
2017-09-13T18:42:29.374Z,17.13
2017-09-13T18:44:57.004Z,10.50
2017-09-13T18:47:25.057Z,14.40
2017-09-13T18:49:52.632Z,12.17
2017-09-13T18:52:20.247Z,15.37
2017-09-13T18:54:48.435Z,14.47
2017-09-13T18:57:15.993Z,18.27
2017-09-13T18:59:43.564Z,12.40
2017-09-13T19:02:11.216Z,12.00
2017-09-13T19:04:38.798Z,16.63
2017-09-13T19:07:09.786Z,10.90
2017-09-13T19:09:37.464Z,15.53
2017-09-13T19:12:05.943Z,14.17
2017-09-13T19:14:33.750Z,13.57
2017-09-13T19:17:02.630Z,40.23
2017-09-13T19:19:30.210Z,15.67
2017-09-13T19:21:59.678Z,16.57
2017-09-13T19:24:31.201Z,23.87
2017-09-13T19:26:58.824Z,22.23
2017-09-13T19:29:27.828Z,16.23
2017-09-13T19:31:56.663Z,18.63
2017-09-13T19:34:24.760Z,15.40
2017-09-13T19:36:52.519Z,10.97
2017-09-13T19:39:20.120Z,11.90
2017-09-13T19:41:47.717Z,16.07
2017-09-13T19:44:15.606Z,24.12
2017-09-13T19:46:46.230Z,15.43
2017-09-13T19:49:17.125Z,14.93
2017-09-13T19:51:47.607Z,21.53
2017-09-13T19:54:20.136Z,24.20
2017-09-13T19:56:47.718Z,14.33
2017-09-13T19:59:18.236Z,28.00
2017-09-13T20:01:48.484Z,18.83
2017-09-13T20:04:19.091Z,13.07
2017-09-13T20:06:46.626Z,13.03
2017-09-13T20:09:14.250Z,12.73
2017-09-13T20:11:42.137Z,12.17
2017-09-13T20:14:10.600Z,11.00
2017-09-13T20:16:41.448Z,14.20
2017-09-13T20:19:09.204Z,15.03
2017-09-13T20:21:38.735Z,17.17
2017-09-13T20:24:06.360Z,10.67
2017-09-13T20:26:37.017Z,13.97
2017-09-13T20:29:07.659Z,13.30
2017-09-13T20:31:35.949Z,16.27
2017-09-13T20:34:04.538Z,12.30
2017-09-13T20:36:32.251Z,9.10
2017-09-13T20:38:59.902Z,12.40
2017-09-13T20:41:27.683Z,13.73
2017-09-13T20:43:55.269Z,8.87
2017-09-13T20:46:22.929Z,15.80
2017-09-13T20:48:50.556Z,8.67
2017-09-13T20:51:18.779Z,11.03
2017-09-13T20:53:46.379Z,13.33
2017-09-13T20:56:13.968Z,8.63
2017-09-13T20:58:41.499Z,10.17
2017-09-13T21:01:10.023Z,10.07
2017-09-13T21:03:37.579Z,12.57
2017-09-13T21:06:05.203Z,10.57
2017-09-13T21:08:32.789Z,13.13
2017-09-13T21:11:00.733Z,10.07
2017-09-13T21:13:28.262Z,12.37
2017-09-13T21:15:55.821Z,10.57
2017-09-13T21:18:23.369Z,15.20
2017-09-13T21:20:50.908Z,11.00
2017-09-13T21:23:18.538Z,8.67
2017-09-13T21:25:46.095Z,14.33
2017-09-13T21:28:13.636Z,11.70
2017-09-13T21:30:41.212Z,7.70
2017-09-13T21:33:09.102Z,6.77
2017-09-13T21:35:36.643Z,13.30
2017-09-13T21:38:04.457Z,10.57
2017-09-13T21:40:32.006Z,14.70
2017-09-13T21:42:59.579Z,13.13
2017-09-13T21:45:27.202Z,7.17
2017-09-13T21:47:54.754Z,15.63
2017-09-13T21:50:22.590Z,12.37
2017-09-13T21:52:50.182Z,9.87
2017-09-13T21:55:17.752Z,6.93
2017-09-13T21:57:45.357Z,12.50
2017-09-13T22:00:12.930Z,9.90
2017-09-13T22:02:40.644Z,15.17
2017-09-13T22:05:08.173Z,18.47
2017-09-13T22:07:35.760Z,9.43
2017-09-13T22:10:03.615Z,10.57
2017-09-13T22:12:31.558Z,9.80
2017-09-13T22:14:59.209Z,10.37
2017-09-13T22:17:26.754Z,10.37
2017-09-13T22:19:54.356Z,13.50
2017-09-13T22:22:21.934Z,9.60
2017-09-13T22:24:49.736Z,7.70
2017-09-13T22:27:17.281Z,7.60
2017-09-13T22:29:44.870Z,11.20
2017-09-13T22:32:12.506Z,10.50
2017-09-13T22:34:40.096Z,6.97
2017-09-13T22:37:07.650Z,9.70
2017-09-13T22:39:35.295Z,9.20
2017-09-13T22:42:02.818Z,10.23
2017-09-13T22:44:30.346Z,8.70
2017-09-13T22:46:57.954Z,10.97
2017-09-13T22:49:25.821Z,9.53
2017-09-13T22:51:53.381Z,12.00
2017-09-13T22:54:20.973Z,16.83
2017-09-13T22:56:48.549Z,17.67
2017-09-13T22:59:16.159Z,9.83
2017-09-13T23:01:43.805Z,10.43
2017-09-13T23:04:11.394Z,7.67
2017-09-13T23:06:38.982Z,8.53
2017-09-13T23:09:06.578Z,7.73
2017-09-13T23:11:34.187Z,8.37
2017-09-13T23:14:01.795Z,7.70
2017-09-13T23:16:29.403Z,8.93
2017-09-13T23:18:56.995Z,11.83
2017-09-13T23:21:24.939Z,11.47
2017-09-13T23:23:52.523Z,9.60
2017-09-13T23:26:20.269Z,8.67
2017-09-13T23:28:47.835Z,8.73
2017-09-13T23:31:15.441Z,9.50
2017-09-13T23:33:43.081Z,10.63
2017-09-13T23:36:10.614Z,9.40
2017-09-13T23:38:38.231Z,10.00
2017-09-13T23:41:05.801Z,11.03
2017-09-13T23:43:33.406Z,8.93
2017-09-13T23:46:01.029Z,8.67
2017-09-13T23:48:28.597Z,12.90
2017-09-13T23:50:56.161Z,22.07
2017-09-13T23:53:23.735Z,9.67
2017-09-13T23:55:51.277Z,13.97
2017-09-13T23:58:19.052Z,8.73
